Time;durP1;ratioP1;P1;durP2;ratioP2;P2;SDS_P1;SDS_P2;PMS_P1;PMS_P2;Temp;Humidity;BMP_temperature;BMP_pressure;BME280_temperature;BME280_humidity;BME280_pressure;Samples;Min_cycle;Max_cycle;Signal;HPM_P1;HPM_P2
2022/04/03 00:02:07;;;;;;;1.73;0.90;;;16.10;34.90;;;;;;5133655;28;20028;-59
2022/04/03 00:04:32;;;;;;;1.90;0.85;;;16.10;34.90;;;;;;5115118;28;20047;-59
2022/04/03 00:07:00;;;;;;;2.38;0.93;;;16.00;34.90;;;;;;5133816;27;20031;-59
2022/04/03 00:09:27;;;;;;;1.65;0.88;;;16.10;34.90;;;;;;5137115;27;20136;-60
2022/04/03 00:11:52;;;;;;;2.85;0.80;;;16.00;34.90;;;;;;5137069;27;20015;-60
2022/04/03 00:14:19;;;;;;;2.15;0.98;;;16.00;34.90;;;;;;5137527;27;20022;-59
2022/04/03 00:16:45;;;;;;;1.85;1.00;;;16.00;34.90;;;;;;5137464;27;20024;-59
2022/04/03 00:19:12;;;;;;;1.10;0.70;;;16.00;34.90;;;;;;5137098;27;20033;-59
2022/04/03 00:21:38;;;;;;;1.20;0.80;;;16.00;34.90;;;;;;5137298;27;20055;-59
2022/04/03 00:24:05;;;;;;;2.03;0.73;;;16.00;34.90;;;;;;5136917;27;20044;-59
2022/04/03 00:26:31;;;;;;;1.15;0.85;;;16.00;34.90;;;;;;5136967;27;20027;-59
2022/04/03 00:28:58;;;;;;;1.48;0.80;;;16.00;34.90;;;;;;5118552;27;20019;-59
2022/04/03 00:31:24;;;;;;;2.55;0.80;;;16.00;34.90;;;;;;5137186;27;20011;-59
2022/04/03 00:33:50;;;;;;;1.30;0.75;;;16.00;34.90;;;;;;5137089;27;20064;-58
2022/04/03 00:36:17;;;;;;;1.15;0.80;;;16.00;35.00;;;;;;5136850;27;20024;-59
2022/04/03 00:38:42;;;;;;;2.55;0.80;;;16.00;35.00;;;;;;5136698;27;20026;-59
2022/04/03 00:41:08;;;;;;;1.70;0.77;;;16.00;35.00;;;;;;5136309;27;20023;-59
2022/04/03 00:43:35;;;;;;;1.58;0.90;;;16.00;34.90;;;;;;5136721;27;20151;-60
2022/04/03 00:46:03;;;;;;;1.10;0.80;;;16.00;35.00;;;;;;5136371;27;20030;-59
2022/04/03 00:48:29;;;;;;;1.55;0.80;;;16.00;35.00;;;;;;5118548;27;20060;-59
2022/04/03 00:50:54;;;;;;;1.48;0.90;;;15.90;35.00;;;;;;5136366;27;20369;-59
2022/04/03 00:53:20;;;;;;;1.55;0.70;;;16.00;35.00;;;;;;5117866;27;20035;-59
2022/04/03 00:55:46;;;;;;;1.67;1.10;;;15.90;35.00;;;;;;5136550;27;20045;-59
2022/04/03 00:58:13;;;;;;;1.77;0.95;;;15.90;34.90;;;;;;5136495;27;20031;-59
2022/04/03 01:00:39;;;;;;;1.60;0.90;;;15.90;35.00;;;;;;5136207;27;20027;-59
2022/04/03 01:03:04;;;;;;;1.25;0.70;;;15.90;35.00;;;;;;5136054;27;20019;-59
2022/04/03 01:05:30;;;;;;;2.72;1.10;;;15.90;35.00;;;;;;5136362;27;20034;-59
2022/04/03 01:07:57;;;;;;;1.48;0.90;;;15.90;35.00;;;;;;5135960;27;20048;-61
2022/04/03 01:10:23;;;;;;;0.90;0.70;;;15.90;35.00;;;;;;5136243;27;20050;-59
2022/04/03 01:12:50;;;;;;;1.35;1.08;;;15.90;35.00;;;;;;5136180;27;20015;-58
2022/04/03 01:15:20;;;;;;;1.02;0.75;;;15.90;35.00;;;;;;5136039;27;20031;-59
2022/04/03 01:17:46;;;;;;;1.52;0.88;;;15.90;35.00;;;;;;5135763;27;20140;-59
2022/04/03 01:20:12;;;;;;;1.85;1.00;;;15.90;35.00;;;;;;5134604;27;20015;-58
2022/04/03 01:22:38;;;;;;;1.17;0.75;;;15.90;35.00;;;;;;5135420;27;20043;-59
2022/04/03 01:25:05;;;;;;;0.70;0.70;;;15.90;35.00;;;;;;5135825;27;20040;-59
2022/04/03 01:27:32;;;;;;;1.23;0.70;;;15.90;35.10;;;;;;5135895;27;20026;-59
2022/04/03 01:29:58;;;;;;;0.85;0.63;;;15.90;35.10;;;;;;5135807;27;20019;-59
2022/04/03 01:32:24;;;;;;;1.33;0.77;;;15.80;35.00;;;;;;5117219;27;20380;-59
2022/04/03 01:34:50;;;;;;;1.30;1.02;;;15.90;35.00;;;;;;5136428;27;20545;-60
2022/04/03 01:37:16;;;;;;;1.20;0.93;;;15.90;35.10;;;;;;5137382;27;20047;-60
2022/04/03 01:39:42;;;;;;;0.70;0.65;;;15.80;35.00;;;;;;5137024;27;20019;-59
2022/04/03 01:42:09;;;;;;;2.47;1.10;;;15.80;35.00;;;;;;5137273;27;20019;-61
2022/04/03 01:44:35;;;;;;;2.33;0.80;;;15.80;35.10;;;;;;5137025;27;20015;-59
2022/04/03 01:47:01;;;;;;;1.55;0.70;;;15.90;35.10;;;;;;5118593;27;20031;-59
2022/04/03 01:49:28;;;;;;;0.98;0.82;;;15.90;35.10;;;;;;5135850;27;20019;-59
2022/04/03 01:51:55;;;;;;;1.70;1.10;;;15.80;35.00;;;;;;5135282;27;20016;-59
2022/04/03 01:54:21;;;;;;;1.67;1.00;;;15.80;35.00;;;;;;5135370;27;20011;-59
2022/04/03 01:56:47;;;;;;;2.95;0.80;;;15.80;35.10;;;;;;5135308;27;20016;-59
2022/04/03 01:59:14;;;;;;;1.10;0.88;;;15.80;35.10;;;;;;5135222;27;20046;-59
2022/04/03 02:01:40;;;;;;;2.15;0.90;;;15.90;35.10;;;;;;5134885;27;20033;-59
2022/04/03 02:04:06;;;;;;;0.85;0.73;;;15.80;35.10;;;;;;5135109;27;20027;-59
2022/04/03 02:06:32;;;;;;;1.73;0.82;;;15.80;35.10;;;;;;5135049;27;20027;-59
2022/04/03 02:08:58;;;;;;;1.80;0.88;;;15.80;35.10;;;;;;5135277;27;20039;-59
2022/04/03 02:11:24;;;;;;;0.90;0.77;;;15.80;35.10;;;;;;5135286;27;20526;-59
2022/04/03 02:13:51;;;;;;;1.85;0.75;;;15.80;35.10;;;;;;5135155;27;20049;-59
2022/04/03 02:16:18;;;;;;;1.50;1.10;;;15.80;35.10;;;;;;5134704;27;20107;-59
2022/04/03 02:18:44;;;;;;;0.75;0.70;;;15.80;35.20;;;;;;5134807;27;20125;-59
2022/04/03 02:21:11;;;;;;;1.45;0.90;;;15.80;35.20;;;;;;5134798;27;20074;-59
2022/04/03 02:23:36;;;;;;;0.85;0.63;;;15.80;35.20;;;;;;5135136;27;20023;-59
2022/04/03 02:26:02;;;;;;;1.80;1.20;;;15.80;35.20;;;;;;5134424;27;20039;-59
2022/04/03 02:28:29;;;;;;;1.58;0.80;;;15.80;35.20;;;;;;5134695;27;20027;-58
2022/04/03 02:30:56;;;;;;;1.30;0.70;;;15.80;35.20;;;;;;5134090;27;20019;-58
2022/04/03 02:33:22;;;;;;;1.63;1.20;;;15.80;35.20;;;;;;5134311;27;20015;-59
2022/04/03 02:35:50;;;;;;;3.92;0.98;;;15.70;35.20;;;;;;5134170;27;20016;-59
2022/04/03 02:38:16;;;;;;;1.40;0.90;;;15.80;35.20;;;;;;5134242;27;20022;-59
2022/04/03 02:40:43;;;;;;;1.73;1.00;;;15.70;35.20;;;;;;5134435;27;20011;-59
2022/04/03 02:43:09;;;;;;;1.25;0.77;;;15.70;35.20;;;;;;5134051;27;20051;-59
2022/04/03 02:45:36;;;;;;;1.40;0.80;;;15.70;35.20;;;;;;5134018;27;20488;-59
2022/04/03 02:48:02;;;;;;;1.30;0.90;;;15.70;35.20;;;;;;5134097;27;20027;-59
2022/04/03 02:50:28;;;;;;;1.15;0.88;;;15.70;35.30;;;;;;5134962;27;20064;-59
2022/04/03 02:52:54;;;;;;;1.20;0.90;;;15.70;35.30;;;;;;5116150;28;20019;-60
2022/04/03 02:55:20;;;;;;;2.45;0.85;;;15.70;35.30;;;;;;5134282;27;20591;-59
2022/04/03 02:57:46;;;;;;;1.33;0.80;;;15.70;35.20;;;;;;5134513;27;20094;-60
2022/04/03 03:00:14;;;;;;;1.65;1.00;;;15.70;35.20;;;;;;5134226;27;20388;-59
2022/04/03 03:02:41;;;;;;;1.13;0.90;;;15.70;35.30;;;;;;5134449;27;20042;-59
2022/04/03 03:05:07;;;;;;;2.33;1.20;;;15.70;35.30;;;;;;5134074;27;20037;-58
2022/04/03 03:07:37;;;;;;;1.63;0.82;;;15.70;35.30;;;;;;5134017;27;20016;-59
2022/04/03 03:10:08;;;;;;;1.00;0.80;;;15.70;35.30;;;;;;5133743;28;20011;-58
2022/04/03 03:12:34;;;;;;;0.82;0.63;;;15.70;35.30;;;;;;5133736;28;20072;-58
2022/04/03 03:15:00;;;;;;;1.80;0.95;;;15.70;35.30;;;;;;5133914;28;20011;-59
2022/04/03 03:17:26;;;;;;;1.05;0.90;;;15.70;35.30;;;;;;5133711;28;20465;-59
2022/04/03 03:19:52;;;;;;;0.95;0.70;;;15.70;35.30;;;;;;5133945;28;20023;-59
2022/04/03 03:22:19;;;;;;;2.03;1.00;;;15.60;35.30;;;;;;5133627;28;20039;-59
2022/04/03 03:24:45;;;;;;;3.00;1.00;;;15.60;35.30;;;;;;5116087;28;20042;-59
2022/04/03 03:27:11;;;;;;;1.98;0.90;;;15.60;35.30;;;;;;5133957;28;20499;-59
2022/04/03 03:29:38;;;;;;;2.05;1.00;;;15.60;35.30;;;;;;5134276;28;20035;-59
2022/04/03 03:32:05;;;;;;;2.72;1.10;;;15.70;35.40;;;;;;5133665;28;20098;-59
2022/04/03 03:34:32;;;;;;;1.65;0.90;;;15.60;35.30;;;;;;5133843;28;20489;-59
2022/04/03 03:36:59;;;;;;;3.00;0.93;;;15.70;35.40;;;;;;5133506;28;20090;-59
2022/04/03 03:39:27;;;;;;;1.02;0.80;;;15.70;35.30;;;;;;5115072;28;20015;-59
2022/04/03 03:41:53;;;;;;;1.23;0.90;;;15.60;35.30;;;;;;5134132;27;20016;-60
2022/04/03 03:44:19;;;;;;;1.42;1.05;;;15.60;35.30;;;;;;5137782;27;20086;-59
2022/04/03 03:46:45;;;;;;;1.00;0.73;;;15.60;35.30;;;;;;5137368;27;20561;-59
2022/04/03 03:49:14;;;;;;;1.13;0.90;;;15.60;35.30;;;;;;5137528;27;20043;-59
2022/04/03 03:51:39;;;;;;;0.80;0.73;;;15.60;35.30;;;;;;5137823;27;20016;-59
2022/04/03 03:54:05;;;;;;;0.90;0.63;;;15.60;35.40;;;;;;5137758;27;20465;-59
2022/04/03 03:56:31;;;;;;;1.88;0.80;;;15.60;35.30;;;;;;5137713;27;20023;-59
2022/04/03 03:58:58;;;;;;;1.40;1.08;;;15.60;35.40;;;;;;5137647;27;20019;-59
2022/04/03 04:01:23;;;;;;;1.63;1.00;;;15.60;35.40;;;;;;5137302;27;20012;-60
2022/04/03 04:03:50;;;;;;;1.08;0.80;;;15.60;35.40;;;;;;5119870;27;20023;-60
2022/04/03 04:06:15;;;;;;;1.20;0.90;;;15.60;35.40;;;;;;5140045;27;20024;-60
2022/04/03 04:08:42;;;;;;;1.00;0.80;;;15.60;35.40;;;;;;5140024;27;20041;-59
2022/04/03 04:11:07;;;;;;;1.65;1.00;;;15.60;35.40;;;;;;5121559;27;20007;-60
2022/04/03 04:13:34;;;;;;;1.50;0.90;;;15.60;35.40;;;;;;5139173;27;20012;-60
2022/04/03 04:16:00;;;;;;;2.58;1.00;;;15.60;35.40;;;;;;5140055;27;20072;-61
2022/04/03 04:18:25;;;;;;;2.65;1.00;;;15.60;35.40;;;;;;5141404;27;20012;-59
2022/04/03 04:20:52;;;;;;;1.50;0.85;;;15.60;35.40;;;;;;5140959;27;20079;-62
2022/04/03 04:23:19;;;;;;;2.90;0.80;;;15.60;35.40;;;;;;5141461;27;20605;-59
2022/04/03 04:25:47;;;;;;;1.70;1.00;;;15.60;35.40;;;;;;5141242;27;20023;-60
2022/04/03 04:28:14;;;;;;;1.90;1.17;;;15.60;35.50;;;;;;5140733;27;20010;-60
2022/04/03 04:30:40;;;;;;;1.30;1.00;;;15.60;35.50;;;;;;5140876;27;20030;-61
2022/04/03 04:33:06;;;;;;;1.67;0.90;;;15.50;35.40;;;;;;5122908;27;20026;-59
2022/04/03 04:35:34;;;;;;;1.20;0.80;;;15.50;35.50;;;;;;5137481;27;20023;-59
2022/04/03 04:38:00;;;;;;;2.25;0.60;;;15.60;35.50;;;;;;5137701;27;20027;-59
2022/04/03 04:40:25;;;;;;;1.02;0.80;;;15.50;35.50;;;;;;5137202;27;20011;-59
2022/04/03 04:42:51;;;;;;;1.33;0.95;;;15.50;35.50;;;;;;5118549;27;20241;-59
2022/04/03 04:45:17;;;;;;;1.83;1.10;;;15.50;35.50;;;;;;5118361;27;20019;-58
2022/04/03 04:47:42;;;;;;;1.55;0.90;;;15.50;35.50;;;;;;5118211;27;20018;-59
2022/04/03 04:50:10;;;;;;;3.20;1.15;;;15.50;35.50;;;;;;5136532;27;20011;-59
2022/04/03 04:52:36;;;;;;;1.50;1.15;;;15.50;35.50;;;;;;5136302;27;20011;-60
2022/04/03 04:55:05;;;;;;;1.77;1.00;;;15.50;35.60;;;;;;5136694;27;20012;-59
2022/04/03 04:57:32;;;;;;;1.88;1.02;;;15.50;35.60;;;;;;5136313;27;20054;-59
2022/04/03 04:59:59;;;;;;;1.90;0.98;;;15.50;35.60;;;;;;5136392;27;20019;-59
2022/04/03 05:02:24;;;;;;;1.27;1.00;;;15.50;35.60;;;;;;5136383;27;20030;-59
2022/04/03 05:04:51;;;;;;;2.30;1.10;;;15.50;35.60;;;;;;5136940;27;20117;-59
2022/04/03 05:07:16;;;;;;;1.90;1.10;;;15.50;35.60;;;;;;5118821;27;20030;-59
2022/04/03 05:09:43;;;;;;;1.75;1.20;;;15.50;35.60;;;;;;5118736;27;20019;-59
2022/04/03 05:12:10;;;;;;;1.48;1.00;;;15.50;35.60;;;;;;5118939;27;20060;-59
2022/04/03 05:14:37;;;;;;;1.80;1.05;;;15.50;35.60;;;;;;5136949;27;20019;-59
2022/04/03 05:17:06;;;;;;;1.40;0.82;;;15.50;35.60;;;;;;5136972;27;20023;-59
2022/04/03 05:19:36;;;;;;;1.08;0.95;;;15.50;35.60;;;;;;5136523;27;20015;-61
2022/04/03 05:22:02;;;;;;;1.20;0.70;;;15.50;36.20;;;;;;5135420;27;20053;-59
2022/04/03 05:24:29;;;;;;;1.27;0.75;;;15.40;35.60;;;;;;5135987;27;20080;-61
2022/04/03 05:26:55;;;;;;;1.88;1.08;;;15.50;35.70;;;;;;5135650;27;20465;-61
2022/04/03 05:29:23;;;;;;;1.90;1.13;;;15.50;35.60;;;;;;5136027;27;20026;-61
2022/04/03 05:31:49;;;;;;;3.33;0.93;;;15.50;35.70;;;;;;5135865;27;20083;-61
2022/04/03 05:34:15;;;;;;;2.03;1.15;;;15.50;35.70;;;;;;5135880;27;20015;-62
2022/04/03 05:36:41;;;;;;;2.05;1.35;;;15.50;35.70;;;;;;5135882;27;20027;-60
2022/04/03 05:39:08;;;;;;;1.17;0.80;;;15.40;35.60;;;;;;5135750;27;20031;-60
2022/04/03 05:41:34;;;;;;;1.38;0.90;;;15.40;35.70;;;;;;5135352;27;20012;-61
2022/04/03 05:44:01;;;;;;;1.63;1.05;;;15.50;35.70;;;;;;5117391;27;20102;-60
2022/04/03 05:46:27;;;;;;;1.90;1.10;;;15.40;35.70;;;;;;5135766;27;20073;-60
2022/04/03 05:48:54;;;;;;;1.15;1.02;;;15.40;35.70;;;;;;5136544;27;20011;-61
2022/04/03 05:51:21;;;;;;;1.25;0.90;;;15.40;35.70;;;;;;5138150;27;20090;-60
2022/04/03 05:53:47;;;;;;;1.40;0.90;;;15.40;35.70;;;;;;5137105;27;20090;-60
2022/04/03 05:56:13;;;;;;;1.30;0.90;;;15.40;35.70;;;;;;5137302;27;20023;-60
2022/04/03 05:58:39;;;;;;;1.13;0.93;;;15.40;35.70;;;;;;5118824;27;20134;-59
2022/04/03 06:01:05;;;;;;;1.13;0.90;;;15.40;35.70;;;;;;5136761;27;20023;-61
2022/04/03 06:03:33;;;;;;;1.00;0.70;;;15.40;35.70;;;;;;5136736;27;20027;-59
2022/04/03 06:06:00;;;;;;;1.52;0.90;;;15.40;35.70;;;;;;5135290;27;20076;-58
2022/04/03 06:08:27;;;;;;;2.42;0.90;;;15.40;35.70;;;;;;5135282;27;20462;-58
2022/04/03 06:10:56;;;;;;;1.08;0.98;;;15.40;35.70;;;;;;5117478;27;20031;-60
2022/04/03 06:13:24;;;;;;;1.30;0.75;;;15.40;35.70;;;;;;5135708;27;20064;-58
2022/04/03 06:15:50;;;;;;;1.90;0.95;;;15.40;35.70;;;;;;5134900;27;20553;-58
2022/04/03 06:18:16;;;;;;;1.38;1.02;;;15.40;35.80;;;;;;5117269;27;20171;-59
2022/04/03 06:20:42;;;;;;;1.52;0.80;;;15.40;35.80;;;;;;5135484;27;20469;-59
2022/04/03 06:23:16;;;;;;;2.88;1.42;;;15.40;35.80;;;;;;5135155;27;20035;-58
2022/04/03 06:25:42;;;;;;;1.33;1.08;;;15.40;35.80;;;;;;5135343;27;20023;-59
2022/04/03 06:28:08;;;;;;;3.55;1.13;;;15.40;35.80;;;;;;5135311;27;20010;-58
2022/04/03 06:30:34;;;;;;;2.67;0.93;;;15.40;35.80;;;;;;5117328;27;20015;-58
2022/04/03 06:33:01;;;;;;;1.48;0.90;;;15.40;35.80;;;;;;5135746;27;20011;-58
2022/04/03 06:35:26;;;;;;;3.15;1.00;;;15.40;35.80;;;;;;5116537;27;20012;-58
2022/04/03 06:37:53;;;;;;;2.63;0.80;;;15.40;35.80;;;;;;5134540;27;20100;-58
2022/04/03 06:40:19;;;;;;;2.20;0.98;;;15.40;35.80;;;;;;5134866;27;20011;-58
2022/04/03 06:42:45;;;;;;;1.83;1.00;;;15.40;35.80;;;;;;5134418;27;20526;-58
2022/04/03 06:45:11;;;;;;;1.30;0.90;;;15.40;35.80;;;;;;5134243;27;20019;-59
2022/04/03 06:47:37;;;;;;;1.75;1.02;;;15.40;35.80;;;;;;5116192;27;20015;-58
2022/04/03 06:50:04;;;;;;;0.88;0.88;;;15.40;35.80;;;;;;5134902;27;20022;-58
2022/04/03 06:52:31;;;;;;;1.95;1.10;;;15.40;35.80;;;;;;5134838;27;20015;-58
2022/04/03 06:54:57;;;;;;;1.27;1.00;;;15.40;35.80;;;;;;5134668;27;20022;-58
2022/04/03 06:57:22;;;;;;;2.25;1.10;;;15.40;35.80;;;;;;5116322;27;20015;-59
2022/04/03 06:59:48;;;;;;;1.70;1.10;;;15.40;35.80;;;;;;5134825;27;20019;-59
2022/04/03 07:02:15;;;;;;;2.55;1.27;;;15.40;35.80;;;;;;5134515;27;20027;-58
2022/04/03 07:04:40;;;;;;;3.17;1.30;;;15.40;35.80;;;;;;5134885;27;20023;-59
2022/04/03 07:07:06;;;;;;;4.70;1.30;;;15.30;35.70;;;;;;5134616;27;20489;-59
2022/04/03 07:09:37;;;;;;;1.38;1.20;;;15.40;36.30;;;;;;5134214;27;20473;-60
2022/04/03 07:12:03;;;;;;;2.05;1.13;;;15.40;35.70;;;;;;5134313;28;20590;-58
2022/04/03 07:14:29;;;;;;;2.25;1.10;;;15.40;35.70;;;;;;5116481;28;20012;-58
2022/04/03 07:16:56;;;;;;;1.63;1.10;;;15.40;35.70;;;;;;5134655;27;20603;-59
2022/04/03 07:19:23;;;;;;;1.60;1.10;;;15.40;35.70;;;;;;5139664;27;20086;-60
2022/04/03 07:21:50;;;;;;;1.10;1.00;;;15.40;35.70;;;;;;5141447;27;20096;-58
2022/04/03 07:24:17;;;;;;;1.63;1.10;;;15.40;35.70;;;;;;5141952;27;20088;-59
2022/04/03 07:26:42;;;;;;;2.15;1.25;;;15.40;35.70;;;;;;5141548;27;20059;-59
2022/04/03 07:29:08;;;;;;;1.42;1.17;;;15.40;35.60;;;;;;5141213;27;20011;-59
2022/04/03 07:31:35;;;;;;;1.60;1.20;;;15.40;35.60;;;;;;5141354;27;20020;-58
2022/04/03 07:34:01;;;;;;;1.42;1.30;;;15.40;35.60;;;;;;5140040;27;20034;-59
2022/04/03 07:36:26;;;;;;;1.25;0.95;;;15.40;35.70;;;;;;5119763;27;20110;-59
2022/04/03 07:38:52;;;;;;;1.80;1.10;;;15.40;35.70;;;;;;5138061;27;20023;-59
2022/04/03 07:41:21;;;;;;;1.92;0.95;;;15.40;35.70;;;;;;5138195;27;20112;-58
2022/04/03 07:43:48;;;;;;;1.27;0.95;;;15.40;35.60;;;;;;5137840;27;20469;-58
2022/04/03 07:46:22;;;;;;;1.98;1.13;;;15.40;35.60;;;;;;5138019;27;20030;-59
2022/04/03 07:48:48;;;;;;;2.60;1.30;;;15.40;35.60;;;;;;5119890;27;20018;-58
2022/04/03 07:51:14;;;;;;;1.88;1.15;;;15.40;35.60;;;;;;5139294;27;20011;-59
2022/04/03 07:53:40;;;;;;;2.10;1.00;;;15.40;35.50;;;;;;5138557;27;20019;-58
2022/04/03 07:56:06;;;;;;;1.55;1.17;;;15.40;35.60;;;;;;5138267;27;20026;-58
2022/04/03 07:58:33;;;;;;;1.30;1.10;;;15.40;35.60;;;;;;5138277;27;20015;-59
2022/04/03 08:01:00;;;;;;;1.45;0.90;;;15.40;35.60;;;;;;5137794;27;20016;-58
2022/04/03 08:03:27;;;;;;;3.50;1.30;;;15.40;35.60;;;;;;5119366;27;20510;-59
2022/04/03 08:05:56;;;;;;;2.17;1.33;;;15.40;35.60;;;;;;5139509;27;20045;-59
2022/04/03 08:08:22;;;;;;;1.77;0.90;;;15.40;35.60;;;;;;5139929;27;20099;-59
2022/04/03 08:10:48;;;;;;;1.38;1.05;;;15.40;35.60;;;;;;5121426;27;20038;-58
2022/04/03 08:13:14;;;;;;;2.33;1.02;;;15.40;35.50;;;;;;5121753;27;20500;-59
2022/04/03 08:15:40;;;;;;;2.35;1.10;;;15.40;35.50;;;;;;5139849;27;20461;-58
2022/04/03 08:18:07;;;;;;;1.15;0.95;;;15.40;35.50;;;;;;5120720;27;20027;-57
2022/04/03 08:20:32;;;;;;;2.47;1.05;;;15.40;35.50;;;;;;5138136;27;20023;-58
2022/04/03 08:23:01;;;;;;;1.92;1.10;;;15.40;35.50;;;;;;5136705;27;20504;-60
2022/04/03 08:25:27;;;;;;;1.60;0.90;;;15.40;35.50;;;;;;5137190;27;20050;-58
2022/04/03 08:27:54;;;;;;;1.33;1.17;;;15.40;35.50;;;;;;5136616;27;20035;-58
2022/04/03 08:30:30;;;;;;;1.58;1.10;;;15.40;35.50;;;;;;5136938;27;20027;-59
2022/04/03 08:32:56;;;;;;;1.60;1.00;;;15.50;35.60;;;;;;5137119;27;20090;-60
2022/04/03 08:35:24;;;;;;;1.42;1.02;;;15.50;35.60;;;;;;5138329;27;20011;-58
2022/04/03 08:37:50;;;;;;;2.17;1.10;;;15.40;35.50;;;;;;5137792;27;20023;-58
2022/04/03 08:40:16;;;;;;;1.85;1.25;;;15.50;35.60;;;;;;5119443;27;20016;-59
2022/04/03 08:42:42;;;;;;;1.50;0.95;;;15.50;35.60;;;;;;5138737;27;20042;-59
2022/04/03 08:45:13;;;;;;;2.70;1.10;;;15.50;35.60;;;;;;5137786;27;20027;-58
2022/04/03 08:47:44;;;;;;;1.50;0.93;;;15.50;35.60;;;;;;5138015;27;20023;-58
2022/04/03 08:50:10;;;;;;;1.20;0.90;;;15.50;35.60;;;;;;5137536;27;20064;-59
2022/04/03 08:52:36;;;;;;;1.52;1.00;;;15.50;35.50;;;;;;5137197;27;20035;-58
2022/04/03 08:55:05;;;;;;;2.30;0.80;;;15.50;35.50;;;;;;5137711;27;20028;-59
2022/04/03 08:57:32;;;;;;;1.80;1.13;;;15.50;35.50;;;;;;5137088;27;20068;-59
2022/04/03 08:59:58;;;;;;;1.92;1.00;;;15.50;35.50;;;;;;5136983;27;20019;-59
2022/04/03 09:02:24;;;;;;;1.73;1.02;;;15.50;35.50;;;;;;5118136;27;20560;-59
2022/04/03 09:04:50;;;;;;;1.98;1.20;;;15.60;35.50;;;;;;5119299;27;20034;-58
2022/04/03 09:07:20;;;;;;;2.00;1.30;;;15.60;35.50;;;;;;5136977;27;20497;-58
2022/04/03 09:09:47;;;;;;;1.67;1.13;;;15.60;35.60;;;;;;5137076;27;20469;-62
2022/04/03 09:12:16;;;;;;;1.48;1.00;;;15.60;35.60;;;;;;5118978;27;20019;-58
2022/04/03 09:14:46;;;;;;;1.27;1.00;;;15.50;35.50;;;;;;5136961;27;20011;-58
2022/04/03 09:17:13;;;;;;;1.83;1.20;;;15.60;35.50;;;;;;5137043;27;20064;-58
2022/04/03 09:19:39;;;;;;;2.00;1.35;;;15.60;35.50;;;;;;5120406;27;20325;-59
2022/04/03 09:22:06;;;;;;;1.70;0.85;;;15.50;35.40;;;;;;5138015;27;20051;-58
2022/04/03 09:24:36;;;;;;;1.40;0.77;;;15.60;35.50;;;;;;5138112;27;20018;-58
2022/04/03 09:27:02;;;;;;;1.90;1.10;;;15.60;35.50;;;;;;5120617;27;20027;-58
2022/04/03 09:29:28;;;;;;;1.73;0.93;;;15.60;35.50;;;;;;5138029;27;20012;-59
2022/04/03 09:31:58;;;;;;;1.58;0.82;;;15.60;35.50;;;;;;5138089;27;20038;-58
2022/04/03 09:34:25;;;;;;;1.42;1.00;;;15.60;35.50;;;;;;5136996;27;20015;-59
2022/04/03 09:37:05;;;;;;;1.98;1.13;;;15.60;35.50;;;;;;5135923;27;20102;-59
2022/04/03 09:39:30;;;;;;;2.50;1.20;;;15.60;35.50;;;;;;5135131;27;20016;-59
2022/04/03 09:42:07;;;;;;;2.13;1.10;;;15.60;35.50;;;;;;5135298;27;20018;-58
2022/04/03 09:44:37;;;;;;;2.40;0.93;;;15.70;35.50;;;;;;5136232;27;20035;-59
2022/04/03 09:47:13;;;;;;;;;;;15.60;35.50;;;;;;5136508;27;20019;-59
2022/04/03 09:49:43;;;;;;;2.22;0.80;;;15.70;35.50;;;;;;5135881;27;19950;-58
2022/04/03 09:52:12;;;;;;;1.10;0.80;;;15.70;35.50;;;;;;5135197;27;20026;-59
2022/04/03 09:54:39;;;;;;;1.40;1.00;;;15.70;35.50;;;;;;5135169;27;20011;-59
2022/04/03 09:57:24;;;;;;;1.30;1.02;;;15.70;35.50;;;;;;5135526;27;20019;-58
2022/04/03 09:59:53;;;;;;;1.20;0.88;;;15.70;35.50;;;;;;5117309;27;20023;-58
2022/04/03 10:02:20;;;;;;;1.35;0.68;;;15.70;35.50;;;;;;5135193;27;20090;-59
2022/04/03 10:04:46;;;;;;;1.65;1.10;;;15.70;35.50;;;;;;5134977;27;20023;-59
2022/04/03 10:07:13;;;;;;;4.20;0.82;;;15.70;35.50;;;;;;5135294;27;20055;-58
2022/04/03 10:09:50;;;;;;;0.90;0.80;;;15.70;35.50;;;;;;5135199;27;20011;-58
2022/04/03 10:12:17;;;;;;;1.98;1.00;;;15.60;35.30;;;;;;5135225;27;20015;-58
2022/04/03 10:14:47;;;;;;;1.30;0.88;;;15.70;35.40;;;;;;5135152;27;20011;-59
2022/04/03 10:17:13;;;;;;;1.08;0.93;;;15.70;35.30;;;;;;5134869;27;20019;-58
2022/04/03 10:19:40;;;;;;;1.80;0.93;;;15.70;35.30;;;;;;5135180;27;20020;-58
2022/04/03 10:22:21;;;;;;;0.95;0.85;;;15.70;35.30;;;;;;5134658;27;20055;-58
2022/04/03 10:24:50;;;;;;;1.35;0.80;;;15.70;35.30;;;;;;5134894;27;20046;-58
2022/04/03 10:27:24;;;;;;;1.05;0.80;;;15.70;35.30;;;;;;5134755;27;20046;-58
2022/04/03 10:29:51;;;;;;;1.67;0.90;;;15.80;35.30;;;;;;5134872;27;20030;-58
2022/04/03 10:32:35;;;;;;;2.08;0.90;;;15.80;35.30;;;;;;5116087;27;20041;-59
2022/04/03 10:35:08;;;;;;;1.42;0.70;;;15.80;35.30;;;;;;5135502;27;20027;-60
2022/04/03 10:37:38;;;;;;;1.25;0.85;;;15.80;35.20;;;;;;5135234;27;20019;-59
2022/04/03 10:40:08;;;;;;;1.07;0.90;;;15.80;35.20;;;;;;5135331;27;20015;-59
2022/04/03 10:42:52;;;;;;;2.35;0.80;;;15.80;35.10;;;;;;5135088;27;20090;-60
2022/04/03 10:45:25;;;;;;;1.10;0.90;;;15.80;35.10;;;;;;5134929;27;20038;-59
2022/04/03 10:47:52;;;;;;;0.98;0.73;;;15.80;35.10;;;;;;5134977;27;20023;-60
2022/04/03 10:50:17;;;;;;;1.20;0.95;;;15.80;35.10;;;;;;5116917;27;20035;-58
2022/04/03 10:52:43;;;;;;;2.08;0.82;;;15.80;35.10;;;;;;5135264;27;20086;-59
2022/04/03 10:55:19;;;;;;;1.75;1.10;;;15.80;35.20;;;;;;5134925;27;20526;-59
2022/04/03 10:58:02;;;;;;;0.88;0.68;;;15.80;35.10;;;;;;5134911;27;20098;-59
2022/04/03 11:00:27;;;;;;;1.50;0.77;;;15.80;35.20;;;;;;5134284;27;20461;-59
2022/04/03 11:02:56;;;;;;;0.70;0.63;;;15.80;35.10;;;;;;5134281;27;20021;-59
2022/04/03 11:05:21;;;;;;;1.17;0.75;;;15.80;35.10;;;;;;5134532;27;20076;-59
2022/04/03 11:07:51;;;;;;;1.73;1.00;;;15.70;35.10;;;;;;5134336;27;20385;-58
2022/04/03 11:10:57;;;;;;;1.23;0.80;;;15.80;35.10;;;;;;5116046;27;20015;-59
2022/04/03 11:13:33;;;;;;;1.42;0.88;;;15.70;35.10;;;;;;5135331;28;20015;-59
2022/04/03 11:16:09;;;;;;;0.98;0.73;;;15.70;35.10;;;;;;5135029;28;20027;-59
2022/04/03 11:18:45;;;;;;;1.42;0.80;;;15.70;35.10;;;;;;5135108;28;20034;-59
2022/04/03 11:21:26;;;;;;;1.45;0.93;;;15.70;35.00;;;;;;5134437;28;20065;-59
2022/04/03 11:24:10;;;;;;;1.25;0.70;;;15.70;35.10;;;;;;5134372;28;20039;-59
2022/04/03 11:26:37;;;;;;;1.30;0.70;;;15.80;35.10;;;;;;5134524;28;20072;-59
2022/04/03 11:29:04;;;;;;;1.40;0.88;;;15.80;35.10;;;;;;5116058;28;20042;-60
2022/04/03 11:31:30;;;;;;;1.20;0.80;;;15.80;35.00;;;;;;5134229;28;20065;-59
2022/04/03 11:33:56;;;;;;;2.50;0.90;;;15.80;35.50;;;;;;5116453;28;20015;-59
2022/04/03 11:36:29;;;;;;;1.70;0.90;;;15.80;34.90;;;;;;5134596;28;20047;-60
2022/04/03 11:38:55;;;;;;;1.10;0.80;;;15.80;34.90;;;;;;5134951;28;20095;-59
2022/04/03 11:41:35;;;;;;;1.02;0.70;;;15.80;34.90;;;;;;5134844;28;20054;-59
2022/04/03 11:44:06;;;;;;;0.98;0.70;;;15.80;34.90;;;;;;5134868;28;20080;-60
2022/04/03 11:46:36;;;;;;;1.23;0.80;;;15.80;34.90;;;;;;5134471;28;20050;-59
2022/04/03 11:49:15;;;;;;;0.95;0.70;;;15.80;34.90;;;;;;5134187;28;20024;-58
2022/04/03 11:51:42;;;;;;;1.58;0.90;;;15.90;35.00;;;;;;5134301;28;20039;-59
2022/04/03 11:54:09;;;;;;;0.80;0.70;;;15.80;34.90;;;;;;5133993;28;20007;-60
2022/04/03 11:56:35;;;;;;;1.23;0.77;;;15.80;34.90;;;;;;5133722;28;20078;-60
2022/04/03 11:59:03;;;;;;;0.70;0.70;;;15.80;34.90;;;;;;5134179;28;20012;-59
2022/04/03 12:01:35;;;;;;;1.33;0.80;;;15.90;34.90;;;;;;5134044;28;20008;-62
2022/04/03 12:04:10;;;;;;;1.40;0.57;;;15.90;34.90;;;;;;5136150;27;20023;-58
2022/04/03 12:06:36;;;;;;;1.35;0.80;;;15.80;34.80;;;;;;5137894;27;20023;-61
2022/04/03 12:09:09;;;;;;;1.45;0.77;;;15.80;34.80;;;;;;5119406;27;20012;-60
2022/04/03 12:11:54;;;;;;;1.40;0.80;;;15.80;34.80;;;;;;5138130;27;20018;-61
2022/04/03 12:14:31;;;;;;;1.75;1.00;;;15.80;34.70;;;;;;5138194;27;20100;-60
2022/04/03 12:17:04;;;;;;;1.48;0.80;;;15.80;34.90;;;;;;5137865;27;20013;-60
2022/04/03 12:19:51;;;;;;;1.38;1.02;;;15.80;35.00;;;;;;5139711;27;20011;-60
2022/04/03 12:22:20;;;;;;;1.52;0.55;;;15.80;35.00;;;;;;5139714;27;20039;-61
2022/04/03 12:24:47;;;;;;;1.67;0.70;;;15.80;35.00;;;;;;5140042;27;20015;-59
2022/04/03 12:27:21;;;;;;;1.05;0.60;;;15.70;34.90;;;;;;5140011;27;20114;-60
2022/04/03 12:29:52;;;;;;;0.93;0.77;;;15.70;34.90;;;;;;5139438;27;20008;-60
2022/04/03 12:32:19;;;;;;;1.05;0.65;;;15.70;35.00;;;;;;5139953;27;20465;-60
2022/04/03 12:34:47;;;;;;;1.48;0.82;;;15.70;35.00;;;;;;5138241;27;20534;-61
2022/04/03 12:37:13;;;;;;;3.13;0.70;;;15.70;35.00;;;;;;5138332;27;20033;-61
2022/04/03 12:39:45;;;;;;;0.75;0.60;;;15.70;35.00;;;;;;5139462;27;20025;-60
2022/04/03 12:42:35;;;;;;;1.48;0.80;;;15.70;35.10;;;;;;5140204;27;20024;-60
2022/04/03 12:45:20;;;;;;;0.88;0.63;;;15.70;35.10;;;;;;5139717;27;20105;-60
2022/04/03 12:48:12;;;;;;;1.38;0.75;;;15.70;35.10;;;;;;5138737;27;20024;-59
2022/04/03 12:50:40;;;;;;;0.80;0.60;;;15.70;35.10;;;;;;5113722;27;20027;-60
2022/04/03 12:53:06;;;;;;;0.80;0.52;;;15.70;35.10;;;;;;5136395;27;20485;-59